This is the latest recevied weather packets stored in our database for station/object EA7JCM-13. If no packets are shown the sender has not sent any weather packets the latest 10 day(s).
| Time | Temp. | Humidity | Pressure | Rain* | Wind** | Luminosity | Snow |
|---|---|---|---|---|---|---|---|
| 1777557003 | 22.22° C | 62% | 1011.9 hPa | 0 mm | - | - | - |
| 1777556703 | 22.22° C | 61% | 1012.1 hPa | 0 mm | - | - | - |
| 1777556402 | 22.22° C | 61% | 1012 hPa | 0 mm | - | - | - |
| 1777556103 | 21.67° C | 61% | 1012 hPa | 0 mm | - | - | - |
| 1777555803 | 23.33° C | 58% | 1011.7 hPa | 0 mm | - | - | - |
| 1777555503 | 23.33° C | 59% | 1012.1 hPa | 0 mm | - | - | - |
| 1777555202 | 22.78° C | 60% | 1012.2 hPa | 0 mm | - | - | - |
| 1777554903 | 22.22° C | 59% | 1012.2 hPa | 0 mm | - | - | - |
| 1777554603 | 21.67° C | 60% | 1012.2 hPa | 0 mm | - | - | - |
| 1777554302 | 22.22° C | 60% | 1012.1 hPa | 0 mm | - | - | - |
| 1777554003 | 21.11° C | 60% | 1012.3 hPa | 0 mm | - | - | - |
| 1777553703 | 22.22° C | 60% | 1012.1 hPa | 0 mm | - | - | - |
| 1777553402 | 22.22° C | 61% | 1012.3 hPa | 0 mm | - | - | - |
| 1777553103 | 21.67° C | 61% | 1012.3 hPa | 0 mm | - | - | - |
| 1777552803 | 21.67° C | 63% | 1012.1 hPa | 0 mm | - | - | - |
| 1777552504 | 21.11° C | 62% | 1012.1 hPa | 0 mm | - | - | - |
| 1777552202 | 21.11° C | 63% | 1012.2 hPa | 0 mm | - | - | - |
| 1777551903 | 21.11° C | 65% | 1012.2 hPa | 0 mm | - | - | - |
| 1777551603 | 20.56° C | 63% | 1012.5 hPa | 0 mm | - | - | - |
| 1777551304 | 21.11° C | 65% | 1012.4 hPa | 0 mm | - | - | - |
| 1777551003 | 20° C | 65% | 1012.5 hPa | 0 mm | - | - | - |
| 1777550703 | 20° C | 66% | 1012.4 hPa | 0 mm | - | - | - |
| 1777550403 | 20.56° C | 65% | 1012.6 hPa | 0 mm | - | - | - |
| 1777550103 | 20.56° C | 64% | 1012.7 hPa | 0 mm | - | - | - |
| 1777549802 | 20.56° C | 64% | 1012.7 hPa | 0 mm | - | - | - |
* Rain latest hour (hover to see other rain measurements)
** Current wind speed in m/s (hover to see current wind gust speed)